EBU weather

Public forecast

Using degrees Celsius for public forecast. Weather courtesy of forecast.io.

Current aviation weather report (METAR) for Saint-Étienne-Bouthéon Airport

Retrieved 2020/08/14 06:00 UTC (2 hours ago):

LFMH 140600Z AUTO 18002KT CAVOK 17/16 Q1018 TEMPO 4000 BR BKN010

Aviation forecast (TAF) for Saint-Étienne-Bouthéon Airport

Retrieved 2020-08-14 03:17 UTC (5 hours ago):

TAF LFMH 140200Z 1403/1503 16004KT 9999 BKN035 PROB30 TEMPO 1404/1409 4000 BR BKN010 BECMG 1409/1411 36006KT BECMG 1412/1414 SCT050 BECMG 1423/1501 VRB03KT CAVOK